TimeCST,TemperatureF,Dew PointF,Humidity,Sea Level PressureIn,VisibilityMPH,Wind Direction,Wind SpeedMPH,Gust SpeedMPH,PrecipitationIn,Events,Conditions,WindDirDegrees,DateUTC
12:51 AM,52.0,46.0,80,30.06,10.0,NNW,19.6,27.6,0.00,,Overcast,330,2013-12-15 06:51:00
1:51 AM,51.1,45.0,80,30.07,10.0,NNW,18.4,25.3,N/A,,Overcast,340,2013-12-15 07:51:00
2:51 AM,50.0,43.0,77,30.09,10.0,NNW,18.4,26.5,N/A,,Overcast,330,2013-12-15 08:51:00
3:51 AM,50.0,42.1,74,30.10,10.0,NNW,19.6,27.6,N/A,,Overcast,340,2013-12-15 09:51:00
4:51 AM,48.0,39.0,71,30.12,10.0,NNW,15.0,26.5,N/A,,Overcast,340,2013-12-15 10:51:00
5:51 AM,46.9,39.0,74,30.15,10.0,NNW,15.0,28.8,N/A,,Overcast,330,2013-12-15 11:51:00
6:51 AM,46.9,37.9,71,30.17,10.0,NNW,17.3,23.0,N/A,,Overcast,340,2013-12-15 12:51:00
7:51 AM,46.0,37.0,71,30.20,10.0,NNW,13.8,27.6,N/A,,Overcast,340,2013-12-15 13:51:00
8:51 AM,46.0,37.9,73,30.23,10.0,North,13.8,23.0,N/A,,Overcast,350,2013-12-15 14:51:00
9:51 AM,46.9,37.0,68,30.25,10.0,North,11.5,23.0,N/A,,Overcast,350,2013-12-15 15:51:00
10:51 AM,46.0,36.0,68,30.25,10.0,North,8.1,17.3,N/A,,Overcast,350,2013-12-15 16:51:00
11:51 AM,46.0,36.0,68,30.25,10.0,Variable,6.9,16.1,N/A,,Overcast,0,2013-12-15 17:51:00
12:51 PM,46.0,37.0,71,30.22,10.0,North,8.1,-,N/A,,Overcast,350,2013-12-15 18:51:00
1:51 PM,46.9,37.0,68,30.22,10.0,North,8.1,16.1,N/A,,Overcast,350,2013-12-15 19:51:00
2:51 PM,46.9,37.0,68,30.22,10.0,NNW,10.4,16.1,N/A,,Mostly Cloudy,340,2013-12-15 20:51:00
3:15 PM,48.2,37.4,66,30.22,10.0,NNW,10.4,-,N/A,,Scattered Clouds,340,2013-12-15 21:15:00
3:51 PM,46.9,37.0,68,30.22,10.0,NNW,10.4,-,N/A,,Partly Cloudy,330,2013-12-15 21:51:00
4:51 PM,46.9,37.9,71,30.23,10.0,NNW,8.1,-,N/A,,Clear,340,2013-12-15 22:51:00
5:51 PM,46.9,37.9,71,30.25,10.0,NNW,9.2,-,N/A,,Clear,340,2013-12-15 23:51:00
6:51 PM,48.0,37.9,68,30.26,10.0,NNW,9.2,-,N/A,,Clear,340,2013-12-16 00:51:00
7:51 PM,48.0,37.9,68,30.28,10.0,North,6.9,-,N/A,,Clear,350,2013-12-16 01:51:00
8:51 PM,48.0,37.9,68,30.29,10.0,North,6.9,-,N/A,,Clear,10,2013-12-16 02:51:00
9:51 PM,46.9,37.9,71,30.30,10.0,Variable,6.9,-,N/A,,Clear,0,2013-12-16 03:51:00
10:51 PM,46.0,37.9,73,30.31,10.0,North,5.8,-,N/A,,Clear,360,2013-12-16 04:51:00
11:51 PM,46.0,39.0,76,30.31,9.0,North,5.8,-,N/A,,Clear,10,2013-12-16 05:51:00